sensor_id;sensor_type;location;lat;lon;timestamp;pressure;altitude;pressure_sealevel;temperature;humidity
62510;BME280;48558;48.242;11.654;2023-05-10T00:01:50;95656.06;;;13.52;100.00
62510;BME280;48558;48.242;11.654;2023-05-10T00:06:09;95655.00;;;13.44;100.00
62510;BME280;48558;48.242;11.654;2023-05-10T00:10:22;95650.47;;;13.41;100.00
62510;BME280;48558;48.242;11.654;2023-05-10T00:14:45;95643.69;;;13.53;100.00
62510;BME280;48558;48.242;11.654;2023-05-10T00:18:57;95644.25;;;13.62;100.00
62510;BME280;48558;48.242;11.654;2023-05-10T00:23:09;95648.78;;;13.54;100.00
62510;BME280;48558;48.242;11.654;2023-05-10T00:27:22;95630.63;;;13.59;100.00
62510;BME280;48558;48.242;11.654;2023-05-10T00:31:34;95644.50;;;13.59;100.00
62510;BME280;48558;48.242;11.654;2023-05-10T00:35:47;95632.09;;;13.49;100.00
62510;BME280;48558;48.242;11.654;2023-05-10T00:40:00;95639.94;;;13.56;100.00
62510;BME280;48558;48.242;11.654;2023-05-10T00:44:13;95639.69;;;13.59;100.00
62510;BME280;48558;48.242;11.654;2023-05-10T00:48:25;95627.78;;;13.48;100.00
62510;BME280;48558;48.242;11.654;2023-05-10T00:52:48;95627.25;;;13.44;100.00
62510;BME280;48558;48.242;11.654;2023-05-10T00:57:01;95636.66;;;13.52;100.00
62510;BME280;48558;48.242;11.654;2023-05-10T01:01:15;95621.28;;;13.56;100.00
62510;BME280;48558;48.242;11.654;2023-05-10T01:05:28;95591.09;;;13.22;100.00
62510;BME280;48558;48.242;11.654;2023-05-10T01:09:40;95622.53;;;13.55;100.00
62510;BME280;48558;48.242;11.654;2023-05-10T01:13:56;95624.25;;;13.47;100.00
62510;BME280;48558;48.242;11.654;2023-05-10T01:18:20;95611.88;;;13.43;100.00
62510;BME280;48558;48.242;11.654;2023-05-10T01:23:04;95622.47;;;13.44;100.00
62510;BME280;48558;48.242;11.654;2023-05-10T01:32:19;95625.00;;;13.42;100.00
62510;BME280;48558;48.242;11.654;2023-05-10T01:36:51;95626.94;;;13.31;100.00
62510;BME280;48558;48.242;11.654;2023-05-10T01:46:00;95620.16;;;13.37;100.00
62510;BME280;48558;48.242;11.654;2023-05-10T01:50:24;95623.25;;;13.45;100.00
62510;BME280;48558;48.242;11.654;2023-05-10T01:54:43;95622.72;;;13.41;100.00
62510;BME280;48558;48.242;11.654;2023-05-10T01:59:12;95628.19;;;13.24;100.00
62510;BME280;48558;48.242;11.654;2023-05-10T02:03:27;95623.41;;;13.25;100.00
62510;BME280;48558;48.242;11.654;2023-05-10T02:07:41;95620.81;;;13.16;100.00
62510;BME280;48558;48.242;11.654;2023-05-10T02:11:55;95624.41;;;13.27;100.00
62510;BME280;48558;48.242;11.654;2023-05-10T02:16:10;95624.63;;;13.18;100.00
62510;BME280;48558;48.242;11.654;2023-05-10T02:20:24;95620.13;;;13.26;100.00
62510;BME280;48558;48.242;11.654;2023-05-10T02:24:38;95627.09;;;13.11;100.00
62510;BME280;48558;48.242;11.654;2023-05-10T02:28:52;95625.91;;;13.23;100.00
62510;BME280;48558;48.242;11.654;2023-05-10T02:33:05;95629.66;;;13.20;100.00
62510;BME280;48558;48.242;11.654;2023-05-10T02:37:20;95629.66;;;13.20;100.00
62510;BME280;48558;48.242;11.654;2023-05-10T02:41:33;95626.38;;;13.16;100.00
62510;BME280;48558;48.242;11.654;2023-05-10T02:45:47;95623.41;;;13.30;100.00
62510;BME280;48558;48.242;11.654;2023-05-10T02:50:10;95631.16;;;13.21;100.00
62510;BME280;48558;48.242;11.654;2023-05-10T02:54:28;95604.81;;;13.00;100.00
62510;BME280;48558;48.242;11.654;2023-05-10T02:58:42;95633.63;;;13.08;100.00
62510;BME280;48558;48.242;11.654;2023-05-10T03:02:56;95629.16;;;13.16;100.00
62510;BME280;48558;48.242;11.654;2023-05-10T03:07:08;95635.38;;;13.05;100.00
62510;BME280;48558;48.242;11.654;2023-05-10T03:11:39;95627.63;;;13.15;100.00
62510;BME280;48558;48.242;11.654;2023-05-10T03:16:34;95634.13;;;13.06;100.00
62510;BME280;48558;48.242;11.654;2023-05-10T03:20:55;95643.75;;;13.11;100.00
62510;BME280;48558;48.242;11.654;2023-05-10T03:25:11;95642.44;;;13.06;100.00
62510;BME280;48558;48.242;11.654;2023-05-10T03:29:34;95647.34;;;13.22;100.00
62510;BME280;48558;48.242;11.654;2023-05-10T03:33:51;95639.47;;;13.15;100.00
62510;BME280;48558;48.242;11.654;2023-05-10T03:38:04;95647.59;;;13.24;100.00
62510;BME280;48558;48.242;11.654;2023-05-10T03:42:17;95659.09;;;13.12;100.00
62510;BME280;48558;48.242;11.654;2023-05-10T03:46:37;95648.09;;;13.23;100.00
62510;BME280;48558;48.242;11.654;2023-05-10T03:50:50;95652.06;;;13.11;100.00
62510;BME280;48558;48.242;11.654;2023-05-10T03:55:12;95656.78;;;13.05;100.00
62510;BME280;48558;48.242;11.654;2023-05-10T03:59:25;95657.09;;;13.12;100.00
62510;BME280;48558;48.242;11.654;2023-05-10T04:03:37;95653.00;;;13.02;100.00
62510;BME280;48558;48.242;11.654;2023-05-10T04:07:50;95661.16;;;13.17;100.00
62510;BME280;48558;48.242;11.654;2023-05-10T04:12:03;95659.47;;;13.25;100.00
62510;BME280;48558;48.242;11.654;2023-05-10T04:16:15;95661.44;;;13.19;100.00
62510;BME280;48558;48.242;11.654;2023-05-10T04:20:38;95664.25;;;13.24;100.00
62510;BME280;48558;48.242;11.654;2023-05-10T04:24:51;95661.78;;;13.32;100.00
62510;BME280;48558;48.242;11.654;2023-05-10T04:29:03;95667.34;;;13.37;100.00
62510;BME280;48558;48.242;11.654;2023-05-10T04:33:15;95666.56;;;13.31;100.00
62510;BME280;48558;48.242;11.654;2023-05-10T04:37:28;95658.00;;;13.35;100.00
62510;BME280;48558;48.242;11.654;2023-05-10T04:41:40;95673.44;;;13.47;100.00
62510;BME280;48558;48.242;11.654;2023-05-10T04:46:03;95672.59;;;13.30;100.00
62510;BME280;48558;48.242;11.654;2023-05-10T04:50:17;95673.28;;;13.19;100.00
62510;BME280;48558;48.242;11.654;2023-05-10T04:54:29;95682.84;;;13.13;100.00
62510;BME280;48558;48.242;11.654;2023-05-10T04:58:42;95682.06;;;13.12;100.00
62510;BME280;48558;48.242;11.654;2023-05-10T05:02:54;95684.84;;;13.12;100.00
62510;BME280;48558;48.242;11.654;2023-05-10T05:07:07;95675.13;;;12.96;100.00
62510;BME280;48558;48.242;11.654;2023-05-10T05:11:19;95709.50;;;13.05;100.00
62510;BME280;48558;48.242;11.654;2023-05-10T05:15:33;95712.47;;;13.01;100.00
62510;BME280;48558;48.242;11.654;2023-05-10T05:19:45;95708.66;;;12.98;100.00
62510;BME280;48558;48.242;11.654;2023-05-10T05:23:58;95707.94;;;13.04;100.00
62510;BME280;48558;48.242;11.654;2023-05-10T05:28:10;95711.41;;;12.93;100.00
62510;BME280;48558;48.242;11.654;2023-05-10T05:32:24;95696.50;;;12.90;100.00
62510;BME280;48558;48.242;11.654;2023-05-10T05:36:37;95718.38;;;12.83;100.00
62510;BME280;48558;48.242;11.654;2023-05-10T05:40:50;95726.22;;;12.84;100.00
62510;BME280;48558;48.242;11.654;2023-05-10T05:45:03;95736.00;;;12.80;100.00
62510;BME280;48558;48.242;11.654;2023-05-10T05:49:15;95738.78;;;12.80;100.00
62510;BME280;48558;48.242;11.654;2023-05-10T05:53:28;95733.28;;;12.85;100.00
62510;BME280;48558;48.242;11.654;2023-05-10T05:57:40;95743.94;;;12.98;100.00
62510;BME280;48558;48.242;11.654;2023-05-10T06:01:54;95730.56;;;12.91;100.00
62510;BME280;48558;48.242;11.654;2023-05-10T06:06:06;95754.25;;;12.92;100.00
62510;BME280;48558;48.242;11.654;2023-05-10T06:10:19;95756.50;;;13.19;100.00
62510;BME280;48558;48.242;11.654;2023-05-10T06:14:32;95773.06;;;13.08;100.00
62510;BME280;48558;48.242;11.654;2023-05-10T06:18:44;95761.88;;;13.03;100.00
62510;BME280;48558;48.242;11.654;2023-05-10T06:22:57;95780.44;;;13.17;100.00
62510;BME280;48558;48.242;11.654;2023-05-10T06:27:14;95785.72;;;13.15;100.00
62510;BME280;48558;48.242;11.654;2023-05-10T06:31:26;95791.72;;;13.39;100.00
62510;BME280;48558;48.242;11.654;2023-05-10T06:35:41;95793.56;;;13.47;100.00
62510;BME280;48558;48.242;11.654;2023-05-10T06:39:53;95798.94;;;13.99;100.00
62510;BME280;48558;48.242;11.654;2023-05-10T06:44:06;95792.56;;;14.35;100.00
62510;BME280;48558;48.242;11.654;2023-05-10T06:48:19;95791.97;;;13.72;100.00
62510;BME280;48558;48.242;11.654;2023-05-10T06:52:36;95801.50;;;14.08;100.00
62510;BME280;48558;48.242;11.654;2023-05-10T06:56:49;95792.31;;;13.91;100.00
62510;BME280;48558;48.242;11.654;2023-05-10T07:01:05;95799.34;;;14.34;100.00
62510;BME280;48558;48.242;11.654;2023-05-10T07:05:25;95793.91;;;14.62;100.00
62510;BME280;48558;48.242;11.654;2023-05-10T07:09:40;95804.63;;;14.26;100.00
62510;BME280;48558;48.242;11.654;2023-05-10T07:13:52;95808.97;;;14.38;100.00
62510;BME280;48558;48.242;11.654;2023-05-10T07:18:05;95806.34;;;14.83;100.00
62510;BME280;48558;48.242;11.654;2023-05-10T07:22:18;95810.63;;;14.78;100.00
62510;BME280;48558;48.242;11.654;2023-05-10T07:26:31;95813.06;;;14.49;100.00
62510;BME280;48558;48.242;11.654;2023-05-10T07:30:43;95809.84;;;14.67;100.00
62510;BME280;48558;48.242;11.654;2023-05-10T07:34:56;95810.59;;;14.73;100.00
62510;BME280;48558;48.242;11.654;2023-05-10T07:39:10;95808.66;;;15.01;100.00
62510;BME280;48558;48.242;11.654;2023-05-10T07:43:31;95806.56;;;14.79;100.00
62510;BME280;48558;48.242;11.654;2023-05-10T07:47:44;95814.97;;;15.01;100.00
62510;BME280;48558;48.242;11.654;2023-05-10T07:51:56;95815.44;;;14.89;100.00
62510;BME280;48558;48.242;11.654;2023-05-10T07:56:26;95810.69;;;15.28;100.00
62510;BME280;48558;48.242;11.654;2023-05-10T08:00:41;95806.06;;;16.14;100.00
62510;BME280;48558;48.242;11.654;2023-05-10T08:04:54;95807.97;;;16.58;100.00
62510;BME280;48558;48.242;11.654;2023-05-10T08:09:08;95815.16;;;16.20;100.00
62510;BME280;48558;48.242;11.654;2023-05-10T08:13:21;95812.88;;;16.18;100.00
62510;BME280;48558;48.242;11.654;2023-05-10T08:17:33;95821.69;;;16.96;100.00
62510;BME280;48558;48.242;11.654;2023-05-10T08:21:46;95812.41;;;16.77;100.00
62510;BME280;48558;48.242;11.654;2023-05-10T08:26:00;95825.59;;;16.77;100.00
62510;BME280;48558;48.242;11.654;2023-05-10T08:30:22;95831.78;;;16.47;100.00
62510;BME280;48558;48.242;11.654;2023-05-10T08:34:45;95824.59;;;15.95;100.00
62510;BME280;48558;48.242;11.654;2023-05-10T08:39:07;95834.72;;;15.98;100.00
62510;BME280;48558;48.242;11.654;2023-05-10T08:43:40;95829.88;;;16.04;100.00
62510;BME280;48558;48.242;11.654;2023-05-10T08:47:53;95830.19;;;15.84;100.00
62510;BME280;48558;48.242;11.654;2023-05-10T08:52:07;95821.66;;;16.50;100.00
62510;BME280;48558;48.242;11.654;2023-05-10T08:56:20;95827.63;;;16.76;100.00
62510;BME280;48558;48.242;11.654;2023-05-10T09:00:33;95834.72;;;19.04;100.00
62510;BME280;48558;48.242;11.654;2023-05-10T09:04:47;95823.84;;;18.09;100.00
62510;BME280;48558;48.242;11.654;2023-05-10T09:09:01;95824.84;;;18.12;100.00
62510;BME280;48558;48.242;11.654;2023-05-10T09:13:16;95835.53;;;17.18;100.00
62510;BME280;48558;48.242;11.654;2023-05-10T09:17:29;95831.19;;;17.88;100.00
62510;BME280;48558;48.242;11.654;2023-05-10T09:21:43;95832.47;;;18.59;100.00
62510;BME280;48558;48.242;11.654;2023-05-10T09:26:02;95833.22;;;17.17;100.00
62510;BME280;48558;48.242;11.654;2023-05-10T09:30:27;95831.16;;;16.82;100.00
62510;BME280;48558;48.242;11.654;2023-05-10T09:34:40;95839.75;;;16.10;100.00
62510;BME280;48558;48.242;11.654;2023-05-10T09:38:53;95841.34;;;15.72;100.00
62510;BME280;48558;48.242;11.654;2023-05-10T09:43:08;95807.19;;;15.50;100.00
62510;BME280;48558;48.242;11.654;2023-05-10T09:47:27;95842.03;;;16.23;100.00
62510;BME280;48558;48.242;11.654;2023-05-10T09:51:43;95839.13;;;16.56;100.00
62510;BME280;48558;48.242;11.654;2023-05-10T09:55:55;95846.78;;;16.39;100.00
62510;BME280;48558;48.242;11.654;2023-05-10T10:00:08;95809.25;;;16.97;100.00
62510;BME280;48558;48.242;11.654;2023-05-10T10:04:25;95835.84;;;16.58;100.00
62510;BME280;48558;48.242;11.654;2023-05-10T10:08:38;95837.94;;;16.35;100.00
62510;BME280;48558;48.242;11.654;2023-05-10T10:13:01;95834.47;;;16.81;100.00
62510;BME280;48558;48.242;11.654;2023-05-10T10:17:14;95829.34;;;17.26;100.00
62510;BME280;48558;48.242;11.654;2023-05-10T10:21:27;95824.91;;;18.06;100.00
62510;BME280;48558;48.242;11.654;2023-05-10T10:25:41;95825.06;;;18.14;100.00
62510;BME280;48558;48.242;11.654;2023-05-10T10:30:24;95828.28;;;18.90;100.00
62510;BME280;48558;48.242;11.654;2023-05-10T10:35:08;95813.44;;;18.77;100.00
62510;BME280;48558;48.242;11.654;2023-05-10T10:39:30;95823.63;;;18.31;100.00
62510;BME280;48558;48.242;11.654;2023-05-10T10:43:43;95826.41;;;18.07;100.00
62510;BME280;48558;48.242;11.654;2023-05-10T10:48:24;95819.31;;;17.11;100.00
62510;BME280;48558;48.242;11.654;2023-05-10T10:52:38;95804.09;;;18.02;100.00
62510;BME280;48558;48.242;11.654;2023-05-10T10:57:14;95819.19;;;18.17;100.00
62510;BME280;48558;48.242;11.654;2023-05-10T11:01:32;95797.53;;;17.75;100.00
62510;BME280;48558;48.242;11.654;2023-05-10T11:05:58;95812.97;;;17.52;100.00
62510;BME280;48558;48.242;11.654;2023-05-10T11:10:10;95806.13;;;17.42;100.00
62510;BME280;48558;48.242;11.654;2023-05-10T11:14:23;95797.63;;;17.88;100.00
62510;BME280;48558;48.242;11.654;2023-05-10T11:19:08;95809.91;;;18.28;100.00
62510;BME280;48558;48.242;11.654;2023-05-10T11:23:23;95811.88;;;19.31;100.00
62510;BME280;48558;48.242;11.654;2023-05-10T11:27:41;95809.78;;;19.38;100.00
62510;BME280;48558;48.242;11.654;2023-05-10T11:31:57;95818.91;;;18.45;100.00
62510;BME280;48558;48.242;11.654;2023-05-10T11:36:13;95803.81;;;16.75;100.00
62510;BME280;48558;48.242;11.654;2023-05-10T11:40:26;95827.63;;;16.76;100.00
62510;BME280;48558;48.242;11.654;2023-05-10T11:44:39;95824.97;;;16.43;100.00
62510;BME280;48558;48.242;11.654;2023-05-10T11:48:55;95826.91;;;15.79;100.00
62510;BME280;48558;48.242;11.654;2023-05-10T11:53:09;95813.50;;;15.67;100.00
62510;BME280;48558;48.242;11.654;2023-05-10T11:57:26;95832.00;;;15.48;100.00
62510;BME280;48558;48.242;11.654;2023-05-10T12:01:41;95843.34;;;15.83;100.00
62510;BME280;48558;48.242;11.654;2023-05-10T12:05:54;95834.78;;;15.53;100.00
62510;BME280;48558;48.242;11.654;2023-05-10T12:10:11;95836.28;;;15.82;100.00
62510;BME280;48558;48.242;11.654;2023-05-10T12:14:34;95852.47;;;15.72;100.00
62510;BME280;48558;48.242;11.654;2023-05-10T12:18:52;95842.59;;;15.94;100.00
62510;BME280;48558;48.242;11.654;2023-05-10T12:23:20;95845.16;;;15.53;100.00
62510;BME280;48558;48.242;11.654;2023-05-10T12:27:32;95859.59;;;15.73;100.00
62510;BME280;48558;48.242;11.654;2023-05-10T12:31:59;95856.28;;;15.81;100.00
62510;BME280;48558;48.242;11.654;2023-05-10T12:36:14;95838.50;;;15.12;100.00
62510;BME280;48558;48.242;11.654;2023-05-10T12:40:27;95882.75;;;15.04;100.00
62510;BME280;48558;48.242;11.654;2023-05-10T12:44:55;95892.00;;;14.20;100.00
62510;BME280;48558;48.242;11.654;2023-05-10T12:49:08;95905.28;;;14.05;100.00
62510;BME280;48558;48.242;11.654;2023-05-10T12:53:22;95890.72;;;13.84;100.00
62510;BME280;48558;48.242;11.654;2023-05-10T12:57:34;95910.09;;;14.04;100.00
62510;BME280;48558;48.242;11.654;2023-05-10T13:01:47;95896.19;;;14.04;100.00
62510;BME280;48558;48.242;11.654;2023-05-10T13:05:59;95879.84;;;14.17;100.00
62510;BME280;48558;48.242;11.654;2023-05-10T13:10:17;95909.72;;;14.28;100.00
62510;BME280;48558;48.242;11.654;2023-05-10T13:14:30;95887.22;;;14.26;100.00
62510;BME280;48558;48.242;11.654;2023-05-10T13:18:43;95903.84;;;14.57;100.00
62510;BME280;48558;48.242;11.654;2023-05-10T13:22:55;95894.28;;;14.75;100.00
62510;BME280;48558;48.242;11.654;2023-05-10T13:27:08;95902.25;;;14.40;100.00
62510;BME280;48558;48.242;11.654;2023-05-10T13:31:24;95894.38;;;14.32;100.00
62510;BME280;48558;48.242;11.654;2023-05-10T13:35:37;95901.03;;;15.27;100.00
62510;BME280;48558;48.242;11.654;2023-05-10T13:39:49;95900.66;;;14.81;100.00
62510;BME280;48558;48.242;11.654;2023-05-10T13:44:02;95911.59;;;15.06;100.00
62510;BME280;48558;48.242;11.654;2023-05-10T13:48:14;95897.06;;;14.27;100.00
62510;BME280;48558;48.242;11.654;2023-05-10T13:52:27;95914.06;;;14.82;100.00
62510;BME280;48558;48.242;11.654;2023-05-10T13:56:41;95900.28;;;15.32;100.00
62510;BME280;48558;48.242;11.654;2023-05-10T14:00:55;95903.09;;;15.43;100.00
62510;BME280;48558;48.242;11.654;2023-05-10T14:05:08;95907.78;;;15.04;100.00
62510;BME280;48558;48.242;11.654;2023-05-10T14:09:30;95901.78;;;15.22;100.00
62510;BME280;48558;48.242;11.654;2023-05-10T14:13:43;95866.91;;;15.38;100.00
62510;BME280;48558;48.242;11.654;2023-05-10T14:17:55;95894.78;;;15.54;100.00
62510;BME280;48558;48.242;11.654;2023-05-10T14:22:15;95905.66;;;15.52;100.00
62510;BME280;48558;48.242;11.654;2023-05-10T14:26:28;95888.41;;;15.43;100.00
62510;BME280;48558;48.242;11.654;2023-05-10T14:30:40;95904.78;;;15.13;100.00
62510;BME280;48558;48.242;11.654;2023-05-10T14:34:54;95910.53;;;14.87;100.00
62510;BME280;48558;48.242;11.654;2023-05-10T14:39:06;95915.31;;;14.81;100.00
62510;BME280;48558;48.242;11.654;2023-05-10T14:43:20;95907.53;;;14.38;100.00
62510;BME280;48558;48.242;11.654;2023-05-10T14:47:37;95904.66;;;14.69;100.00
62510;BME280;48558;48.242;11.654;2023-05-10T14:51:49;95908.97;;;14.70;100.00
62510;BME280;48558;48.242;11.654;2023-05-10T14:56:02;95906.22;;;13.96;100.00
62510;BME280;48558;48.242;11.654;2023-05-10T15:00:15;95914.81;;;14.29;100.00
62510;BME280;48558;48.242;11.654;2023-05-10T15:04:39;95907.25;;;13.99;100.00
62510;BME280;48558;48.242;11.654;2023-05-10T15:08:51;95912.06;;;13.67;100.00
62510;BME280;48558;48.242;11.654;2023-05-10T15:13:04;95895.56;;;13.27;100.00
62510;BME280;48558;48.242;11.654;2023-05-10T15:17:20;95920.66;;;13.38;100.00
62510;BME280;48558;48.242;11.654;2023-05-10T15:21:32;95934.09;;;13.45;100.00
62510;BME280;48558;48.242;11.654;2023-05-10T15:25:50;95939.09;;;13.41;100.00
62510;BME280;48558;48.242;11.654;2023-05-10T15:30:08;95923.31;;;13.27;100.00
62510;BME280;48558;48.242;11.654;2023-05-10T15:34:20;95948.00;;;13.25;100.00
62510;BME280;48558;48.242;11.654;2023-05-10T15:38:33;95940.00;;;13.58;100.00
62510;BME280;48558;48.242;11.654;2023-05-10T15:42:45;95951.25;;;13.23;100.00
62510;BME280;48558;48.242;11.654;2023-05-10T15:46:58;95954.66;;;13.33;100.00
62510;BME280;48558;48.242;11.654;2023-05-10T15:51:11;95910.22;;;13.07;100.00
62510;BME280;48558;48.242;11.654;2023-05-10T15:55:28;95955.09;;;13.06;100.00
62510;BME280;48558;48.242;11.654;2023-05-10T15:59:40;95953.88;;;13.07;100.00
62510;BME280;48558;48.242;11.654;2023-05-10T16:03:54;95960.28;;;12.98;100.00
62510;BME280;48558;48.242;11.654;2023-05-10T16:08:06;95962.09;;;13.01;100.00
62510;BME280;48558;48.242;11.654;2023-05-10T16:12:19;95964.66;;;12.64;100.00
62510;BME280;48558;48.242;11.654;2023-05-10T16:16:31;95970.91;;;12.59;100.00
62510;BME280;48558;48.242;11.654;2023-05-10T16:20:44;95977.28;;;12.65;100.00
62510;BME280;48558;48.242;11.654;2023-05-10T16:24:57;95985.81;;;12.27;100.00
62510;BME280;48558;48.242;11.654;2023-05-10T16:29:10;95989.69;;;12.35;100.00
62510;BME280;48558;48.242;11.654;2023-05-10T16:33:22;95992.63;;;11.97;100.00
62510;BME280;48558;48.242;11.654;2023-05-10T16:37:35;95997.31;;;11.91;100.00
62510;BME280;48558;48.242;11.654;2023-05-10T16:41:47;96001.31;;;11.90;100.00
62510;BME280;48558;48.242;11.654;2023-05-10T16:46:00;96008.41;;;11.91;100.00
62510;BME280;48558;48.242;11.654;2023-05-10T16:50:12;96000.75;;;11.86;100.00
62510;BME280;48558;48.242;11.654;2023-05-10T16:54:27;96011.91;;;12.06;100.00
62510;BME280;48558;48.242;11.654;2023-05-10T16:58:40;96019.47;;;11.91;100.00
62510;BME280;48558;48.242;11.654;2023-05-10T17:02:53;96007.56;;;11.85;100.00
62510;BME280;48558;48.242;11.654;2023-05-10T17:07:15;96012.28;;;11.99;100.00
62510;BME280;48558;48.242;11.654;2023-05-10T17:11:40;96016.13;;;11.72;100.00
62510;BME280;48558;48.242;11.654;2023-05-10T17:15:53;96022.16;;;12.00;100.00
62510;BME280;48558;48.242;11.654;2023-05-10T17:20:07;96024.31;;;11.67;100.00
62510;BME280;48558;48.242;11.654;2023-05-10T17:24:19;96028.56;;;11.91;100.00
62510;BME280;48558;48.242;11.654;2023-05-10T17:28:32;96035.41;;;11.96;100.00
62510;BME280;48558;48.242;11.654;2023-05-10T17:32:54;96027.97;;;11.87;100.00
62510;BME280;48558;48.242;11.654;2023-05-10T17:37:07;96035.81;;;11.89;100.00
62510;BME280;48558;48.242;11.654;2023-05-10T17:41:20;96036.28;;;11.73;100.00
62510;BME280;48558;48.242;11.654;2023-05-10T17:45:41;96040.41;;;11.53;100.00
62510;BME280;48558;48.242;11.654;2023-05-10T17:50:05;96041.19;;;11.39;100.00
62510;BME280;48558;48.242;11.654;2023-05-10T17:54:18;96057.25;;;11.26;100.00
62510;BME280;48558;48.242;11.654;2023-05-10T17:58:31;96061.03;;;11.14;100.00
62510;BME280;48558;48.242;11.654;2023-05-10T18:02:43;96051.09;;;11.08;100.00
62510;BME280;48558;48.242;11.654;2023-05-10T18:06:55;96055.44;;;11.00;100.00
62510;BME280;48558;48.242;11.654;2023-05-10T18:11:12;96040.56;;;10.73;100.00
62510;BME280;48558;48.242;11.654;2023-05-10T18:15:34;96059.38;;;10.84;100.00
62510;BME280;48558;48.242;11.654;2023-05-10T18:19:46;96067.84;;;11.04;100.00
62510;BME280;48558;48.242;11.654;2023-05-10T18:23:59;96074.22;;;10.96;100.00
62510;BME280;48558;48.242;11.654;2023-05-10T18:28:12;96072.81;;;11.00;100.00
62510;BME280;48558;48.242;11.654;2023-05-10T18:32:24;96070.03;;;11.00;100.00
62510;BME280;48558;48.242;11.654;2023-05-10T18:36:37;96069.22;;;10.85;100.00
62510;BME280;48558;48.242;11.654;2023-05-10T18:40:49;96063.84;;;10.81;100.00
62510;BME280;48558;48.242;11.654;2023-05-10T18:45:02;96068.94;;;10.83;100.00
62510;BME280;48558;48.242;11.654;2023-05-10T18:49:26;96060.59;;;10.92;100.00
62510;BME280;48558;48.242;11.654;2023-05-10T18:53:40;96064.88;;;10.69;100.00
62510;BME280;48558;48.242;11.654;2023-05-10T18:57:52;96074.03;;;10.75;100.00
62510;BME280;48558;48.242;11.654;2023-05-10T19:02:05;96078.50;;;10.73;100.00
62510;BME280;48558;48.242;11.654;2023-05-10T19:06:18;96074.03;;;10.75;100.00
62510;BME280;48558;48.242;11.654;2023-05-10T19:10:31;96075.72;;;10.73;100.00
62510;BME280;48558;48.242;11.654;2023-05-10T19:14:44;96079.56;;;10.75;100.00
62510;BME280;48558;48.242;11.654;2023-05-10T19:18:56;96078.53;;;10.64;100.00
62510;BME280;48558;48.242;11.654;2023-05-10T19:23:11;96073.53;;;10.53;100.00
62510;BME280;48558;48.242;11.654;2023-05-10T19:27:26;96091.97;;;10.47;100.00
62510;BME280;48558;48.242;11.654;2023-05-10T19:31:38;96085.19;;;10.57;100.00
62510;BME280;48558;48.242;11.654;2023-05-10T19:36:01;96086.69;;;10.58;100.00
62510;BME280;48558;48.242;11.654;2023-05-10T19:40:14;96075.56;;;10.44;100.00
62510;BME280;48558;48.242;11.654;2023-05-10T19:44:28;96091.28;;;10.61;100.00
62510;BME280;48558;48.242;11.654;2023-05-10T19:48:40;96088.56;;;10.52;100.00
62510;BME280;48558;48.242;11.654;2023-05-10T19:52:53;96089.59;;;10.64;100.00
62510;BME280;48558;48.242;11.654;2023-05-10T19:57:05;96088.53;;;10.61;100.00
62510;BME280;48558;48.242;11.654;2023-05-10T20:01:18;96093.59;;;10.63;100.00
62510;BME280;48558;48.242;11.654;2023-05-10T20:05:34;96085.69;;;10.47;100.00
62510;BME280;48558;48.242;11.654;2023-05-10T20:09:46;96097.19;;;10.45;100.00
62510;BME280;48558;48.242;11.654;2023-05-10T20:13:59;96063.69;;;10.29;100.00
62510;BME280;48558;48.242;11.654;2023-05-10T20:18:19;96101.00;;;10.57;100.00
62510;BME280;48558;48.242;11.654;2023-05-10T20:22:32;96101.97;;;10.36;100.00
62510;BME280;48558;48.242;11.654;2023-05-10T20:26:44;96084.88;;;10.14;100.00
62510;BME280;48558;48.242;11.654;2023-05-10T20:30:57;96102.59;;;10.40;100.00
62510;BME280;48558;48.242;11.654;2023-05-10T20:35:11;96106.72;;;10.44;100.00
62510;BME280;48558;48.242;11.654;2023-05-10T20:39:24;96104.88;;;10.41;100.00
62510;BME280;48558;48.242;11.654;2023-05-10T20:43:36;96096.44;;;10.45;100.00
62510;BME280;48558;48.242;11.654;2023-05-10T20:47:48;96095.13;;;10.31;100.00
62510;BME280;48558;48.242;11.654;2023-05-10T20:52:01;96098.16;;;10.42;100.00
62510;BME280;48558;48.242;11.654;2023-05-10T20:56:23;96090.03;;;10.30;100.00
62510;BME280;48558;48.242;11.654;2023-05-10T21:00:47;96088.81;;;10.31;100.00
62510;BME280;48558;48.242;11.654;2023-05-10T21:05:00;96073.03;;;10.31;100.00
62510;BME280;48558;48.242;11.654;2023-05-10T21:09:13;96079.28;;;10.32;100.00
62510;BME280;48558;48.242;11.654;2023-05-10T21:13:25;96067.41;;;10.17;100.00
62510;BME280;48558;48.242;11.654;2023-05-10T21:17:37;96069.34;;;10.25;100.00
62510;BME280;48558;48.242;11.654;2023-05-10T21:21:50;96071.19;;;10.28;100.00
62510;BME280;48558;48.242;11.654;2023-05-10T21:26:03;96068.91;;;10.27;100.00
62510;BME280;48558;48.242;11.654;2023-05-10T21:30:16;96061.97;;;10.31;100.00
62510;BME280;48558;48.242;11.654;2023-05-10T21:34:30;96047.00;;;10.14;100.00
62510;BME280;48558;48.242;11.654;2023-05-10T21:38:42;96058.50;;;10.22;100.00
62510;BME280;48558;48.242;11.654;2023-05-10T21:42:55;96056.78;;;10.24;100.00
62510;BME280;48558;48.242;11.654;2023-05-10T21:47:09;96056.34;;;10.17;100.00
62510;BME280;48558;48.242;11.654;2023-05-10T21:51:21;96049.22;;;10.34;100.00
62510;BME280;48558;48.242;11.654;2023-05-10T21:55:34;96050.66;;;10.20;100.00
62510;BME280;48558;48.242;11.654;2023-05-10T21:59:46;96054.81;;;10.16;100.00
62510;BME280;48558;48.242;11.654;2023-05-10T22:03:59;96063.56;;;10.14;100.00
62510;BME280;48558;48.242;11.654;2023-05-10T22:08:11;96059.75;;;10.12;100.00